Flight Track Log - Related Links

Times and Time Zones

All times are in EDT time to prevent confusion due to time zone crossing. See the LOF3357 flight status page for this flight to view local times or setup timezone preferences in your user account.

Time Position Orientation Groundspeed Altitude Reporting Facility
EDT Latitude Longitude Course Direction KTS MPH feet Rate Location/Type
Tue 01:16:38 PM 38.9500 -77.5167 243° Southwest 176 203 1,700  Level Potomac TRACON
Tue 01:17:38 PM 38.9167 -77.6000 243° Southwest 238 274 3,000 1,648 Climbing Potomac TRACON
Tue 01:18:09 PM 38.9125 -77.6431 263° West 243 280 4,200 1,978 Climbing Washington Center
Tue 01:19:09 PM 38.8967 -77.7147 254° West 248 285 6,000 2,050 Climbing Washington Center
Tue 01:20:09 PM 38.8928 -77.8133 267° West 255 293 8,300 1,650 Climbing Washington Center
Tue 01:21:09 PM 38.8994 -77.9094 275° West 255 293 9,300 1,500 Climbing Washington Center
Tue 01:22:09 PM 38.9247 -78.0011 290° West 277 319 11,300 1,250 Climbing Washington Center
Tue 01:23:09 PM 38.9433 -78.1164 282° West 303 349 11,800 650 Climbing Washington Center
Tue 01:24:09 PM 38.9614 -78.2425 280° West 336 387 12,600 850 Climbing Washington Center
Tue 01:25:09 PM 38.9647 -78.3681 272° West 352 405 13,500 900 Climbing Washington Center
Tue 01:26:09 PM 38.9700 -78.4992 273° West 362 417 14,400 900 Climbing Washington Center
Tue 01:27:09 PM 38.9750 -78.6303 273° West 369 425 15,300 900 Climbing Washington Center
Tue 01:28:09 PM 38.9778 -78.7639 272° West 369 425 16,200 900 Climbing Washington Center
Tue 01:29:09 PM 38.9806 -78.9003 272° West 374 430 17,100 850 Climbing Washington Center
Tue 01:30:09 PM 38.9853 -79.0311 273° West 374 430 17,900 850 Climbing Washington Center
Tue 01:31:09 PM 38.9894 -79.1678 272° West 379 436 18,800 950 Climbing Washington Center
Tue 01:32:09 PM 38.9917 -79.3039 271° West 384 442 19,800 950 Climbing Washington Center
Tue 01:33:09 PM 38.9958 -79.4378 272° West 384 442 20,700 1,000 Climbing Washington Center
Tue 01:34:09 PM 38.9969 -79.5900 271° West 390 449 21,800 1,000 Climbing Washington Center
Tue 01:35:09 PM 39.0006 -79.7292 272° West 390 449 22,700 900 Climbing Washington Center
Tue 01:36:09 PM 39.0022 -79.8628 271° West 390 449 23,600 900 Climbing Washington Center
Tue 01:37:09 PM 39.0036 -79.9992 271° West 383 441 24,500 891 Climbing Washington Center
Tue 01:39:04 PM 39.0061 -80.2250 271° West 375 432 26,200 949 Climbing Indianapolis Center
Tue 01:40:06 PM 39.0075 -80.3819 271° West 368 423 27,300 1,024 Climbing Indianapolis Center
Tue 01:41:07 PM 39.0103 -80.5097 272° West 362 417 28,300 927 Climbing Indianapolis Center
Tue 01:42:09 PM 39.0119 -80.6353 271° West 353 406 29,200 871 Climbing Indianapolis Center
Tue 01:43:11 PM 39.0128 -80.7578 271° West 346 398 30,100 927 Climbing Indianapolis Center
Tue 01:44:12 PM 39.0389 -80.8706 287° West 339 390 31,100 976 Climbing Indianapolis Center
Tue 01:45:14 PM 39.0808 -80.9744 298° West 333 383 32,100 927 Climbing Indianapolis Center
Tue 01:46:15 PM 39.1211 -81.0750 297° West 322 371 33,000 439 Climbing Indianapolis Center
Tue 01:47:17 PM 39.1736 -81.1997 299° West 331 381 33,000 242 Level Indianapolis Center
Tue 01:48:19 PM 39.2178 -81.3089 298° West 344 396 33,500 488 Climbing Indianapolis Center
Tue 01:49:20 PM 39.2614 -81.4150 298° West 339 390 34,000 244 Climbing Indianapolis Center
Tue 01:50:22 PM 39.3061 -81.5236 298° West 344 396 34,000  Level Indianapolis Center
Tue 01:51:24 PM 39.3503 -81.6336 297° West 348 400 34,000  Level Indianapolis Center
Tue 01:52:25 PM 39.3953 -81.7453 298° West 351 404 34,000 732 Level Indianapolis Center
Tue 01:53:27 PM 39.4475 -81.8761 297° West 345 397 35,500 968 Climbing Indianapolis Center
Tue 01:54:29 PM 39.4875 -81.9769 297° West 327 376 36,000 244 Climbing Indianapolis Center
Tue 01:55:30 PM 39.5294 -82.0819 297° West 326 375 36,000  Level Indianapolis Center
Tue 01:56:32 PM 39.5708 -82.1836 298° West 328 377 36,000  Level Indianapolis Center
Tue 01:57:34 PM 39.6144 -82.2925 297° West 335 386 36,000  Level Indianapolis Center
Tue 01:58:35 PM 39.6583 -82.4033 297° West 341 392 36,000  Level Indianapolis Center
Tue 01:59:37 PM 39.7011 -82.5142 297° West 341 392 36,000  Level Indianapolis Center
Tue 02:00:39 PM 39.7525 -82.6436 297° West 343 395 36,000  Level Indianapolis Center
Tue 02:01:41 PM 39.7961 -82.7544 297° West 343 395 36,000  Level Indianapolis Center
Tue 02:02:42 PM 39.8392 -82.8642 297° West 339 390 36,000 -49 Level Indianapolis Center
Tue 02:03:44 PM 39.8814 -82.9750 296° West 340 391 35,900  Descending Indianapolis Center
Tue 02:04:46 PM 39.9244 -83.0856 297° West 341 392 36,000 48 Climbing Indianapolis Center
Tue 02:05:48 PM 39.9608 -83.1983 293° West 342 394 36,000  Level Indianapolis Center
Tue 02:06:49 PM 39.9597 -83.3208 269° West 337 388 36,000  Level Indianapolis Center
Tue 02:07:51 PM 39.9542 -83.4661 267° West 342 394 36,000  Level Indianapolis Center
Tue 02:08:53 PM 39.9489 -83.5861 267° West 344 396 36,000  Level Indianapolis Center
Tue 02:09:55 PM 39.9444 -83.7094 267° West 343 395 36,000  Level Indianapolis Center
Tue 02:10:56 PM 39.9400 -83.8344 267° West 343 395 36,000  Level Indianapolis Center
Tue 02:11:58 PM 39.9353 -83.9597 267° West 344 396 36,000  Level Indianapolis Center
Tue 02:13:00 PM 39.9306 -84.0861 267° West 345 397 36,000  Level Indianapolis Center
Tue 02:14:02 PM 39.9247 -84.2336 267° West 348 400 36,000  Level Indianapolis Center
Tue 02:15:03 PM 39.9192 -84.3600 267° West 348 400 36,000  Level Indianapolis Center
Tue 02:16:05 PM 39.9142 -84.4869 267° West 348 400 36,000  Level Indianapolis Center
Tue 02:17:07 PM 39.9064 -84.6147 266° West 350 403 36,000  Level Indianapolis Center
Tue 02:18:09 PM 39.9008 -84.7414 267° West 350 403 36,000  Level Indianapolis Center
Tue 02:19:11 PM 39.8950 -84.8694 267° West 350 403 36,000  Level Indianapolis Center
Tue 02:20:12 PM 39.8886 -84.9975 266° West 352 405 36,000  Level Indianapolis Center
Tue 02:21:14 PM 39.8833 -85.1253 267° West 351 404 36,000  Level Indianapolis Center
Tue 02:22:16 PM 39.8758 -85.2553 266° West 355 409 36,000  Level Indianapolis Center
Tue 02:23:18 PM 39.8675 -85.4069 266° West 357 411 36,000  Level Indianapolis Center
Tue 02:24:20 PM 39.8606 -85.5372 266° West 359 413 36,000  Level Indianapolis Center
Tue 02:25:21 PM 39.8544 -85.6672 267° West 358 412 36,000  Level Indianapolis Center
Tue 02:26:23 PM 39.8461 -85.7969 265° West 358 412 36,000  Level Indianapolis Center
Tue 02:27:25 PM 39.8392 -85.9342 266° West 363 418 36,000  Level Indianapolis Center
Tue 02:28:27 PM 39.8328 -86.0644 266° West 361 415 36,000  Level Indianapolis Center
Tue 02:29:29 PM 39.8244 -86.1944 265° West 361 415 36,000  Level Indianapolis Center
Tue 02:30:31 PM 39.8167 -86.3258 266° West 363 418 36,000  Level Indianapolis Center
Tue 02:31:32 PM 39.7933 -86.4536 257° West 364 419 36,000  Level Indianapolis Center
Tue 02:32:34 PM 39.7614 -86.5806 252° West 368 423 36,000  Level Indianapolis Center
Tue 02:33:36 PM 39.7247 -86.7306 252° West 364 419 36,000  Level Indianapolis Center
Tue 02:34:38 PM 39.6939 -86.8561 252° West 364 419 36,000  Level Indianapolis Center
Tue 02:35:40 PM 39.6622 -86.9842 252° West 370 426 36,000  Level Indianapolis Center
Tue 02:36:41 PM 39.6303 -87.1103 252° West 369 425 36,000 -195 Level Indianapolis Center
Tue 02:37:43 PM 39.5992 -87.2353 252° West 365 420 35,600 -726 Descending Indianapolis Center
Tue 02:38:45 PM 39.5672 -87.3597 252° West 364 419 34,500 -1,016 Descending Indianapolis Center
Tue 02:39:47 PM 39.5364 -87.4811 252° West 358 412 33,500 -1,122 Descending Indianapolis Center
Tue 02:40:48 PM 39.4978 -87.6333 252° West 369 425 32,200 -1,317 Descending Indianapolis Center
Tue 02:41:50 PM 39.4647 -87.7611 252° West 372 428 30,800 -1,403 Descending Indianapolis Center
Tue 02:42:52 PM 39.4306 -87.8944 252° West 381 438 29,300 -1,403 Descending Indianapolis Center
Tue 02:43:07 PM 39.4242 -87.9219 253° West 384 442 29,000 -1,026 Descending Kansas City Center
Tue 02:44:08 PM 39.3897 -88.0517 251° West 385 443 28,000 -488 Descending Kansas City Center
Tue 02:45:10 PM 39.3550 -88.1825 251° West 384 442 28,000  Level Kansas City Center
Tue 02:46:11 PM 39.3200 -88.3128 251° West 383 441 28,000  Level Kansas City Center
Tue 02:47:13 PM 39.2844 -88.4450 251° West 386 444 28,000  Level Kansas City Center
Tue 02:48:13 PM 39.2500 -88.5772 251° West 388 447 28,000 -677 Level Kansas City Center
Tue 02:49:17 PM 39.2125 -88.7178 251° West 390 449 26,600 -1,762 Descending Kansas City Center
Tue 02:50:19 PM 39.1772 -88.8489 251° West 389 448 24,300 -2,439 Descending Kansas City Center
Tue 02:51:20 PM 39.1369 -88.9978 251° West 382 440 21,600 -2,705 Descending Kansas City Center
Tue 02:52:21 PM 39.1028 -89.1289 251° West 360 414 18,800 -2,733 Descending Kansas City Center
Tue 02:53:01 PM 39.0836 -89.1461 215° Southwest 324 373 17,000 -2,600 Descending FAA TRACON SMA TRACON (SMA)
Tue 02:53:21 PM 39.0753 -89.1811 253° West 332 382 16,200 -2,550 Descending FAA TRACON SMA TRACON (SMA)
Tue 02:53:41 PM 39.0658 -89.2253 255° West 333 383 15,300 -2,400 Descending FAA TRACON SMA TRACON (SMA)
Tue 02:54:01 PM 39.0586 -89.2603 255° West 331 381 14,600 -2,100 Descending FAA TRACON SMA TRACON (SMA)
Tue 02:54:21 PM 39.0497 -89.2953 252° West 333 383 13,900 -2,400 Descending FAA TRACON SMA TRACON (SMA)
Tue 02:54:41 PM 39.0383 -89.3392 252° West 336 387 13,000 -2,341 Descending FAA TRACON SMA TRACON (SMA)
Tue 02:55:02 PM 39.0319 -89.3742 257° West 331 381 12,300 -1,650 Descending FAA TRACON SMA TRACON (SMA)
Tue 02:55:21 PM 39.0244 -89.4083 254° West 326 375 11,900 -1,538 Descending FAA TRACON SMA TRACON (SMA)
Tue 02:55:41 PM 39.0142 -89.4514 253° West 329 379 11,300 -1,350 Descending FAA TRACON SMA TRACON (SMA)
Tue 02:56:01 PM 39.0047 -89.4856 250° West 327 376 11,000 -600 Descending FAA TRACON SMA TRACON (SMA)
Tue 02:56:21 PM 38.9981 -89.5192 256° West 321 369 10,900 -150 Descending FAA TRACON SMA TRACON (SMA)
Tue 02:56:41 PM 38.9836 -89.5589 245° Southwest 320 368 10,900 -293 Level FAA TRACON SMA TRACON (SMA)
Tue 02:57:02 PM 38.9639 -89.5825 223° Southwest 317 365 10,700 -600 Descending FAA TRACON SMA TRACON (SMA)
Tue 02:57:21 PM 38.9475 -89.6050 227° Southwest 299 344 10,500 -732 Descending FAA TRACON SMA TRACON (SMA)
Tue 02:57:43 PM 38.9281 -89.6306 226° Southwest 273 314 10,200 -1,024 Descending FAA TRACON SMA TRACON (SMA)
Tue 02:58:02 PM 38.9119 -89.6492 222° Southwest 250 288 9,800 -1,421 Descending FAA TRACON SMA TRACON (SMA)
Tue 02:58:21 PM 38.8986 -89.6689 229° Southwest 245 282 9,300 -1,846 Descending FAA TRACON SMA TRACON (SMA)
Tue 02:58:41 PM 38.8797 -89.6919 224° Southwest 238 274 8,600 -1,800 Descending FAA TRACON SMA TRACON (SMA)
Tue 02:59:01 PM 38.8669 -89.7111 229° Southwest 235 270 8,100 -1,463 Descending FAA TRACON SMA TRACON (SMA)
Tue 02:59:22 PM 38.8547 -89.7308 231° Southwest 231 266 7,600 -1,610 Descending FAA TRACON SMA TRACON (SMA)
Tue 02:59:42 PM 38.8406 -89.7544 232° Southwest 222 255 7,000 -1,050 Descending FAA TRACON SMA TRACON (SMA)
Tue 03:00:02 PM 38.8289 -89.7744 233° Southwest 225 259 6,900 -150 Descending FAA TRACON SMA TRACON (SMA)
Tue 03:00:22 PM 38.8167 -89.7942 232° Southwest 227 261 6,900  Level FAA TRACON SMA TRACON (SMA)
Tue 03:00:43 PM 38.8014 -89.8183 231° Southwest 227 261 6,900  Level FAA TRACON SMA TRACON (SMA)
Tue 03:01:02 PM 38.7897 -89.8378 232° Southwest 226 260 6,900 154 Level FAA TRACON SMA TRACON (SMA)
Tue 03:01:22 PM 38.7708 -89.8456 198° South 238 274 7,000  Climbing FAA TRACON SMA TRACON (SMA)
Tue 03:01:42 PM 38.7458 -89.8422 174° South 237 273 6,900 -146 Descending FAA TRACON SMA TRACON (SMA)
Tue 03:02:03 PM 38.7272 -89.8394 173° South 234 269 6,900  Level FAA TRACON SMA TRACON (SMA)
Tue 03:02:22 PM 38.7078 -89.8367 174° South 230 265 6,900  Level FAA TRACON SMA TRACON (SMA)
Tue 03:02:41 PM 38.6850 -89.8467 199° South 238 274 6,900 -154 Level FAA TRACON SMA TRACON (SMA)
Tue 03:03:01 PM 38.6767 -89.8694 245° Southwest 236 272 6,800 -750 Descending FAA TRACON SMA TRACON (SMA)
Tue 03:03:21 PM 38.6719 -89.8942 256° West 235 270 6,400 -1,500 Descending FAA TRACON SMA TRACON (SMA)
Tue 03:03:41 PM 38.6658 -89.9247 256° West 231 266 5,800 -1,650 Descending FAA TRACON SMA TRACON (SMA)
Tue 03:04:01 PM 38.6617 -89.9492 258° West 232 267 5,300 -1,500 Descending FAA TRACON SMA TRACON (SMA)
Tue 03:04:21 PM 38.6558 -89.9744 254° West 239 275 4,800 -1,463 Descending FAA TRACON SMA TRACON (SMA)
Tue 03:04:42 PM 38.6489 -90.0050 254° West 234 269 4,300 -1,350 Descending FAA TRACON SMA TRACON (SMA)
Tue 03:05:01 PM 38.6433 -90.0289 253° West 230 265 3,900 -1,200 Descending FAA TRACON SMA TRACON (SMA)
Tue 03:05:22 PM 38.6389 -90.0514 256° West 220 253 3,500 -750 Descending FAA TRACON SMA TRACON (SMA)
Tue 03:05:41 PM 38.6356 -90.0722 258° West 203 234 3,400 -154 Descending FAA TRACON SMA TRACON (SMA)
Tue 03:06:01 PM 38.6414 -90.0956 288° West 182 209 3,400  Level FAA TRACON SMA TRACON (SMA)
Tue 03:06:22 PM 38.6483 -90.1125 298° West 174 200 3,400 -146 Level FAA TRACON SMA TRACON (SMA)
Tue 03:06:42 PM 38.6583 -90.1331 302° West 175 201 3,300 -600 Descending FAA TRACON SMA TRACON (SMA)
Tue 03:07:02 PM 38.6669 -90.1494 304° West 179 206 3,000 -923 Descending FAA TRACON SMA TRACON (SMA)
Tue 03:07:21 PM 38.6750 -90.1658 302° West 179 206 2,700 -923 Descending FAA TRACON SMA TRACON (SMA)
Tue 03:07:41 PM 38.6831 -90.1831 301° West 181 208 2,400 -1,024 Descending FAA TRACON SMA TRACON (SMA)
Tue 03:08:02 PM 38.6939 -90.2039 304° West 182 209 2,000 -900 Descending FAA TRACON SMA TRACON (SMA)
Tue 03:08:21 PM 38.7014 -90.2200 301° West 175 201 1,800 -900 Descending FAA TRACON SMA TRACON (SMA)
Tue 03:08:42 PM 38.7106 -90.2372 304° West 157 181 1,400 -900 Descending FAA TRACON SMA TRACON (SMA)
Tue 03:09:01 PM 38.7172 -90.2506 303° West 147 169 1,200 -750 Descending FAA TRACON SMA TRACON (SMA)
Tue 03:09:22 PM 38.7239 -90.2639 303° West 144 166 900 -878 Descending FAA TRACON SMA TRACON (SMA)
Tue 03:09:42 PM 38.7319 -90.2800 303° West 141 162 600 -900 Descending FAA TRACON SMA TRACON (SMA)
Tue 03:12:00 PM 38.7333 -90.3667 247° West  Level FlightAware Approximate

Login

Don't have an account? Register now (free) for customized features, flight alerts, and more!